createdAt,value
2019-03-25T00:00:29.812Z,48.00
2019-03-25T00:01:02.907Z,54.50
2019-03-25T00:01:36.007Z,53.00
2019-03-25T00:02:07.208Z,56.30
2019-03-25T00:02:38.377Z,57.97
2019-03-25T00:03:09.592Z,62.13
2019-03-25T00:03:40.846Z,59.10
2019-03-25T00:04:12.074Z,61.27
2019-03-25T00:04:43.305Z,57.73
2019-03-25T00:05:14.520Z,63.83
2019-03-25T00:05:45.740Z,61.47
2019-03-25T00:06:17.060Z,60.50
2019-03-25T00:06:48.282Z,59.37
2019-03-25T00:07:19.525Z,59.90
2019-03-25T00:07:50.724Z,55.43
2019-03-25T00:08:21.876Z,60.47
2019-03-25T00:09:04.527Z,50.63
2019-03-25T00:09:26.154Z,56.83
2019-03-25T00:09:57.406Z,59.07
2019-03-25T00:10:28.557Z,58.83
2019-03-25T00:10:59.797Z,57.77
2019-03-25T00:11:30.959Z,59.70
2019-03-25T00:12:02.246Z,51.97
2019-03-25T00:12:33.427Z,51.27
2019-03-25T00:13:04.688Z,52.47
2019-03-25T00:13:35.845Z,48.50
2019-03-25T00:14:07.060Z,52.17
2019-03-25T00:14:38.224Z,55.37
2019-03-25T00:15:09.445Z,52.60
2019-03-25T00:15:40.589Z,56.43
2019-03-25T00:16:11.812Z,59.07
2019-03-25T00:16:43.056Z,61.13
2019-03-25T00:17:14.279Z,62.57
2019-03-25T00:17:45.538Z,73.70
2019-03-25T00:18:16.736Z,76.50
2019-03-25T00:18:47.901Z,78.73
2019-03-25T00:19:19.135Z,84.90
2019-03-25T00:19:50.279Z,75.63
2019-03-25T00:20:21.520Z,79.77
2019-03-25T00:20:52.681Z,85.30
2019-03-25T00:21:23.882Z,82.17
2019-03-25T00:21:55.067Z,78.60
2019-03-25T00:22:26.253Z,81.30
2019-03-25T00:22:57.431Z,86.27
2019-03-25T00:23:28.693Z,85.57
2019-03-25T00:23:59.923Z,82.53
2019-03-25T00:24:38.685Z,81.70
2019-03-25T00:25:04.865Z,61.27
2019-03-25T00:25:36.097Z,68.00
2019-03-25T00:26:07.326Z,57.33
2019-03-25T00:26:38.538Z,54.33
2019-03-25T00:27:09.846Z,60.07
2019-03-25T00:27:41.067Z,52.23
2019-03-25T00:28:13.809Z,48.47
2019-03-25T00:28:45.134Z,48.27
2019-03-25T00:29:16.313Z,42.77
2019-03-25T00:29:47.483Z,48.13
2019-03-25T00:30:18.710Z,44.27
2019-03-25T00:30:50.018Z,42.77
2019-03-25T00:31:21.220Z,48.40
2019-03-25T00:31:52.367Z,44.23
2019-03-25T00:32:23.662Z,43.80
2019-03-25T00:32:54.842Z,42.93
2019-03-25T00:33:26.046Z,40.07
2019-03-25T00:33:57.190Z,42.67
2019-03-25T00:34:28.380Z,37.87
2019-03-25T00:34:59.550Z,39.40
2019-03-25T00:35:31.764Z,38.23
2019-03-25T00:36:02.951Z,39.20
2019-03-25T00:36:34.155Z,40.90
2019-03-25T00:37:05.295Z,43.37
2019-03-25T00:37:36.518Z,46.70
2019-03-25T00:38:07.708Z,53.07
2019-03-25T00:38:38.891Z,51.20
2019-03-25T00:39:10.081Z,48.03
2019-03-25T00:39:41.290Z,51.27
2019-03-25T00:40:12.455Z,44.73
2019-03-25T00:40:43.646Z,45.33
2019-03-25T00:41:14.849Z,49.97
2019-03-25T00:41:46.047Z,46.03
2019-03-25T00:42:17.203Z,45.53
2019-03-25T00:42:48.403Z,41.97
2019-03-25T00:43:19.592Z,43.70
2019-03-25T00:43:50.813Z,44.60
2019-03-25T00:44:21.996Z,40.20
2019-03-25T00:44:53.177Z,38.80
2019-03-25T00:45:24.366Z,39.60
2019-03-25T00:45:55.540Z,37.97
2019-03-25T00:46:26.724Z,46.33
2019-03-25T00:46:57.907Z,39.53
2019-03-25T00:47:29.088Z,43.40
2019-03-25T00:48:00.245Z,35.50
2019-03-25T00:48:31.438Z,40.70
2019-03-25T00:49:02.613Z,42.70
2019-03-25T00:49:33.806Z,38.13
2019-03-25T00:50:06.023Z,44.47
2019-03-25T00:50:37.260Z,40.73
2019-03-25T00:51:08.446Z,35.10
2019-03-25T00:51:39.619Z,40.67
2019-03-25T00:52:10.816Z,35.90
2019-03-25T00:52:42.020Z,41.80
2019-03-25T00:53:13.235Z,37.93
2019-03-25T00:53:44.433Z,42.37
2019-03-25T00:54:15.600Z,36.53
2019-03-25T00:54:50.163Z,37.80
2019-03-25T00:55:19.857Z,43.80
2019-03-25T00:55:51.091Z,35.30
2019-03-25T00:56:22.264Z,36.80
2019-03-25T00:56:54.486Z,37.83
2019-03-25T00:57:25.772Z,41.13
2019-03-25T00:57:56.942Z,41.13
2019-03-25T00:58:28.136Z,40.87
2019-03-25T00:58:59.308Z,50.63
2019-03-25T00:59:30.509Z,53.50
2019-03-25T01:00:02.873Z,45.03
2019-03-25T01:00:35.273Z,48.80
2019-03-25T01:01:06.472Z,49.67
2019-03-25T01:01:37.736Z,49.03
2019-03-25T01:02:08.897Z,52.33
2019-03-25T01:02:40.113Z,62.37
2019-03-25T01:03:11.281Z,50.97
2019-03-25T01:03:42.483Z,48.23
2019-03-25T01:04:13.636Z,55.23
2019-03-25T01:04:44.830Z,55.37
2019-03-25T01:05:16.000Z,51.57
2019-03-25T01:05:47.239Z,51.43
2019-03-25T01:06:18.501Z,51.47
2019-03-25T01:06:49.698Z,46.30
2019-03-25T01:07:20.839Z,42.80
2019-03-25T01:07:52.043Z,43.13
2019-03-25T01:08:23.179Z,47.07
2019-03-25T01:08:55.379Z,36.13
2019-03-25T01:09:26.559Z,41.93
2019-03-25T01:09:57.759Z,33.60
2019-03-25T01:10:28.895Z,36.23
2019-03-25T01:11:00.095Z,37.40
2019-03-25T01:11:31.255Z,34.67
2019-03-25T01:12:02.551Z,35.43
2019-03-25T01:12:33.701Z,44.27
2019-03-25T01:13:04.896Z,44.17
2019-03-25T01:13:36.082Z,60.20
2019-03-25T01:14:07.278Z,52.07
2019-03-25T01:14:38.424Z,56.30
2019-03-25T01:15:09.611Z,59.93
2019-03-25T01:15:40.798Z,58.07
2019-03-25T01:16:12.022Z,60.90
2019-03-25T01:16:43.191Z,58.90
2019-03-25T01:17:14.380Z,61.93
2019-03-25T01:17:45.578Z,60.47
2019-03-25T01:18:17.470Z,63.77
2019-03-25T01:18:48.768Z,68.17
2019-03-25T01:19:19.944Z,67.13
2019-03-25T01:19:51.130Z,68.93
2019-03-25T01:20:22.413Z,63.87
2019-03-25T01:20:53.703Z,58.90
2019-03-25T01:21:24.870Z,51.10
2019-03-25T01:21:56.048Z,53.60
2019-03-25T01:22:27.314Z,53.53
2019-03-25T01:22:58.496Z,44.50
2019-03-25T01:23:29.667Z,44.30
2019-03-25T01:24:00.844Z,41.67
2019-03-25T01:24:32.010Z,42.77
2019-03-25T01:25:05.031Z,39.87
2019-03-25T01:25:36.206Z,41.17
2019-03-25T01:26:07.374Z,44.23
2019-03-25T01:26:38.572Z,45.03
2019-03-25T01:27:09.741Z,44.47
2019-03-25T01:27:40.931Z,43.77
2019-03-25T01:28:12.125Z,49.60
2019-03-25T01:28:43.342Z,41.63
2019-03-25T01:29:14.518Z,47.03
2019-03-25T01:29:45.687Z,53.90
2019-03-25T01:30:16.871Z,44.27
2019-03-25T01:30:48.047Z,42.10
2019-03-25T01:31:19.231Z,52.73
2019-03-25T01:31:50.404Z,43.03
2019-03-25T01:32:21.608Z,40.90
2019-03-25T01:32:52.804Z,44.97
2019-03-25T01:33:23.994Z,39.27
2019-03-25T01:33:55.232Z,45.67
2019-03-25T01:34:26.424Z,44.40
2019-03-25T01:34:57.618Z,42.30
2019-03-25T01:35:28.811Z,40.03
2019-03-25T01:36:00.003Z,42.07
2019-03-25T01:36:31.193Z,39.80
2019-03-25T01:37:02.354Z,39.53
2019-03-25T01:37:33.529Z,40.33
2019-03-25T01:38:04.704Z,40.93
2019-03-25T01:38:35.872Z,40.87
2019-03-25T01:39:07.074Z,40.53
2019-03-25T01:39:38.306Z,43.03
2019-03-25T01:40:09.531Z,35.67
2019-03-25T01:40:40.764Z,33.57
2019-03-25T01:41:11.999Z,33.73
2019-03-25T01:41:43.218Z,38.27
2019-03-25T01:42:14.456Z,39.17
2019-03-25T01:42:45.738Z,36.80
2019-03-25T01:43:16.965Z,36.73
2019-03-25T01:43:48.186Z,35.13
2019-03-25T01:44:19.396Z,38.33
2019-03-25T01:44:50.546Z,40.47
2019-03-25T01:45:21.745Z,42.30
2019-03-25T01:45:52.884Z,40.13
2019-03-25T01:46:24.187Z,42.97
2019-03-25T01:46:55.342Z,40.83
2019-03-25T01:47:26.616Z,38.20
2019-03-25T01:47:57.769Z,41.27
2019-03-25T01:48:28.981Z,39.40
2019-03-25T01:49:00.135Z,43.53
2019-03-25T01:49:31.364Z,44.93
2019-03-25T01:50:05.213Z,42.00
2019-03-25T01:50:36.409Z,42.23
2019-03-25T01:51:07.571Z,40.17
2019-03-25T01:51:38.767Z,45.73
2019-03-25T01:52:09.976Z,40.77
2019-03-25T01:52:41.173Z,43.13
2019-03-25T01:53:12.321Z,38.83
2019-03-25T01:53:44.519Z,37.97
2019-03-25T01:54:15.689Z,43.73
2019-03-25T01:54:46.919Z,36.33
2019-03-25T01:55:18.121Z,31.73
2019-03-25T01:55:49.342Z,44.13
2019-03-25T01:56:20.551Z,39.97
2019-03-25T01:56:51.767Z,35.67
2019-03-25T01:57:23.015Z,41.77
2019-03-25T01:57:54.436Z,35.50
2019-03-25T01:58:25.694Z,39.70
2019-03-25T01:58:56.906Z,38.73
2019-03-25T01:59:28.116Z,42.93
2019-03-25T01:59:59.275Z,38.57
2019-03-25T02:00:30.478Z,40.10
2019-03-25T02:01:01.625Z,41.83
2019-03-25T02:01:32.816Z,36.70
2019-03-25T02:02:03.964Z,39.17
2019-03-25T02:02:35.162Z,35.23
2019-03-25T02:03:07.316Z,32.40
2019-03-25T02:03:38.528Z,37.83
2019-03-25T02:04:09.671Z,39.73
2019-03-25T02:04:40.873Z,38.70
2019-03-25T02:05:12.018Z,38.03
2019-03-25T02:05:43.207Z,41.17
2019-03-25T02:06:14.417Z,37.93
2019-03-25T02:06:45.652Z,35.37
2019-03-25T02:07:16.856Z,37.53
2019-03-25T02:07:48.240Z,38.53
2019-03-25T02:08:19.388Z,34.70
2019-03-25T02:08:50.589Z,39.73
2019-03-25T02:09:21.860Z,38.40
2019-03-25T02:09:53.066Z,39.33
2019-03-25T02:10:24.331Z,38.63
2019-03-25T02:10:55.512Z,37.80
2019-03-25T02:11:26.747Z,41.53
2019-03-25T02:11:57.925Z,35.53
2019-03-25T02:12:29.101Z,35.30
2019-03-25T02:13:00.305Z,40.87
2019-03-25T02:13:31.473Z,36.83
2019-03-25T02:14:02.643Z,34.53
2019-03-25T02:14:33.849Z,34.23
2019-03-25T02:15:05.345Z,38.70
2019-03-25T02:15:36.533Z,31.63
2019-03-25T02:16:07.708Z,32.33
2019-03-25T02:16:38.889Z,36.17
2019-03-25T02:17:10.065Z,33.47
2019-03-25T02:17:41.250Z,34.80
2019-03-25T02:18:12.418Z,36.43
2019-03-25T02:18:43.604Z,38.67
2019-03-25T02:19:14.781Z,40.40
2019-03-25T02:19:46.038Z,39.60
2019-03-25T02:20:25.945Z,36.57
2019-03-25T02:20:50.336Z,36.07
2019-03-25T02:21:21.492Z,38.90
2019-03-25T02:21:52.751Z,37.67
2019-03-25T02:22:23.905Z,36.70
2019-03-25T02:22:56.398Z,43.27
2019-03-25T02:23:27.644Z,43.43
2019-03-25T02:23:58.848Z,40.33
2019-03-25T02:24:30.008Z,42.57
2019-03-25T02:25:01.507Z,42.07
2019-03-25T02:25:32.664Z,42.07
2019-03-25T02:26:03.856Z,42.70
2019-03-25T02:26:35.051Z,46.83
2019-03-25T02:27:06.312Z,47.93
2019-03-25T02:27:37.478Z,42.97
2019-03-25T02:28:08.680Z,39.43
2019-03-25T02:28:39.825Z,42.37
2019-03-25T02:29:11.015Z,43.57
2019-03-25T02:29:42.201Z,41.73
2019-03-25T02:30:13.402Z,40.30
2019-03-25T02:30:44.566Z,40.23
2019-03-25T02:31:16.759Z,38.97
2019-03-25T02:31:47.897Z,36.63
2019-03-25T02:32:19.103Z,40.67
2019-03-25T02:32:50.274Z,38.63
2019-03-25T02:33:21.467Z,35.60
2019-03-25T02:33:52.617Z,42.50
2019-03-25T02:34:23.833Z,33.40
2019-03-25T02:34:55.011Z,33.50
2019-03-25T02:35:26.195Z,36.33
2019-03-25T02:35:57.376Z,33.43
2019-03-25T02:36:28.543Z,36.13
2019-03-25T02:36:59.734Z,34.03
2019-03-25T02:37:30.910Z,30.87
2019-03-25T02:38:02.172Z,40.23
2019-03-25T02:38:33.369Z,37.40
2019-03-25T02:39:04.556Z,38.63
2019-03-25T02:39:36.489Z,40.67
2019-03-25T02:40:07.747Z,40.20
2019-03-25T02:40:38.947Z,41.13
2019-03-25T02:41:10.144Z,45.67
2019-03-25T02:41:41.323Z,41.23
2019-03-25T02:42:12.510Z,44.70
2019-03-25T02:42:43.671Z,41.67
2019-03-25T02:43:14.850Z,45.20
2019-03-25T02:43:46.165Z,46.13
2019-03-25T02:44:17.396Z,40.13
2019-03-25T02:44:48.628Z,42.00
2019-03-25T02:45:19.828Z,37.93
2019-03-25T02:45:50.973Z,44.63
2019-03-25T02:46:22.164Z,47.97
2019-03-25T02:46:53.341Z,41.23
2019-03-25T02:47:24.540Z,39.60
2019-03-25T02:47:55.736Z,46.63
2019-03-25T02:48:26.949Z,43.77
2019-03-25T02:48:58.098Z,37.03
2019-03-25T02:49:29.283Z,42.23
2019-03-25T02:50:00.660Z,45.10
2019-03-25T02:50:31.942Z,40.13
2019-03-25T02:51:03.117Z,39.43
2019-03-25T02:51:34.312Z,46.13
2019-03-25T02:52:05.492Z,40.23
2019-03-25T02:52:36.698Z,37.80
2019-03-25T02:53:07.871Z,39.97
2019-03-25T02:53:39.070Z,44.03
2019-03-25T02:54:10.215Z,35.33
2019-03-25T02:54:41.406Z,38.17
2019-03-25T02:55:12.626Z,40.47
2019-03-25T02:55:43.845Z,41.37
2019-03-25T02:56:15.121Z,42.50
2019-03-25T02:56:46.353Z,37.37
2019-03-25T02:57:17.565Z,45.87
2019-03-25T02:57:48.794Z,41.83
2019-03-25T02:58:20.018Z,39.87
2019-03-25T02:58:51.263Z,40.60
2019-03-25T02:59:22.476Z,41.50
2019-03-25T02:59:53.773Z,40.63
2019-03-25T03:00:37.414Z,41.90
2019-03-25T03:01:08.574Z,40.77
2019-03-25T03:01:39.856Z,37.57
2019-03-25T03:02:10.993Z,38.43
2019-03-25T03:02:42.202Z,43.43
2019-03-25T03:03:13.337Z,37.07
2019-03-25T03:03:44.537Z,41.50
2019-03-25T03:04:15.681Z,39.50
2019-03-25T03:04:46.882Z,36.43
2019-03-25T03:05:18.066Z,37.40
2019-03-25T03:05:49.260Z,50.57
2019-03-25T03:06:20.402Z,45.67
2019-03-25T03:06:51.605Z,54.27
2019-03-25T03:07:22.752Z,55.23
2019-03-25T03:07:53.956Z,51.67
2019-03-25T03:08:25.124Z,56.43
2019-03-25T03:08:56.330Z,49.20
2019-03-25T03:09:27.488Z,50.53
2019-03-25T03:09:58.675Z,57.23
2019-03-25T03:10:29.884Z,51.67
2019-03-25T03:11:01.054Z,53.60
2019-03-25T03:11:32.226Z,47.13
2019-03-25T03:12:03.505Z,56.80
2019-03-25T03:12:34.793Z,62.93
2019-03-25T03:13:05.962Z,50.60
2019-03-25T03:13:37.160Z,46.77
2019-03-25T03:14:08.347Z,40.60
2019-03-25T03:14:39.514Z,42.03
2019-03-25T03:15:10.679Z,45.47
2019-03-25T03:15:41.855Z,45.77
2019-03-25T03:16:13.030Z,35.13
2019-03-25T03:16:44.220Z,35.27
2019-03-25T03:17:15.401Z,39.43
2019-03-25T03:17:46.563Z,46.67
2019-03-25T03:18:17.738Z,46.30
2019-03-25T03:18:48.925Z,35.83
2019-03-25T03:19:20.119Z,41.27
2019-03-25T03:19:51.296Z,34.27
2019-03-25T03:20:22.473Z,36.87
2019-03-25T03:20:53.659Z,37.67
2019-03-25T03:21:24.828Z,40.13
2019-03-25T03:21:56.012Z,38.37
2019-03-25T03:22:27.305Z,33.90
2019-03-25T03:22:58.558Z,45.53
2019-03-25T03:23:29.933Z,38.20
2019-03-25T03:24:01.132Z,37.17
2019-03-25T03:24:33.284Z,41.17
2019-03-25T03:25:04.489Z,39.37
2019-03-25T03:25:35.680Z,32.00
2019-03-25T03:26:06.861Z,39.00
2019-03-25T03:26:39.107Z,36.67
2019-03-25T03:27:10.279Z,39.47
2019-03-25T03:27:41.477Z,38.90
2019-03-25T03:28:12.663Z,39.20
2019-03-25T03:28:43.853Z,42.97
2019-03-25T03:29:15.094Z,38.87
2019-03-25T03:29:46.280Z,32.07
2019-03-25T03:30:18.477Z,38.00
2019-03-25T03:30:49.667Z,40.83
2019-03-25T03:31:20.820Z,32.37
2019-03-25T03:31:52.110Z,35.47
2019-03-25T03:32:23.269Z,34.60
2019-03-25T03:32:54.468Z,35.50
2019-03-25T03:33:25.705Z,32.80
2019-03-25T03:33:56.894Z,36.30
2019-03-25T03:34:28.058Z,32.83
2019-03-25T03:34:59.247Z,33.27
2019-03-25T03:35:30.390Z,31.97
2019-03-25T03:36:01.599Z,39.50
2019-03-25T03:36:32.766Z,32.37
2019-03-25T03:37:04.018Z,36.90
2019-03-25T03:37:35.203Z,35.73
2019-03-25T03:38:06.439Z,36.90
2019-03-25T03:38:37.602Z,41.47
2019-03-25T03:39:08.788Z,36.20
2019-03-25T03:39:39.954Z,32.80
2019-03-25T03:40:11.142Z,39.00
2019-03-25T03:40:42.320Z,34.10
2019-03-25T03:41:13.536Z,34.80
2019-03-25T03:41:44.686Z,37.40
2019-03-25T03:42:15.871Z,38.17
2019-03-25T03:42:47.126Z,37.53
2019-03-25T03:43:18.351Z,32.97
2019-03-25T03:43:49.532Z,41.70
2019-03-25T03:44:20.812Z,39.10
2019-03-25T03:44:52.027Z,32.63
2019-03-25T03:45:23.246Z,34.37
2019-03-25T03:45:54.445Z,32.63
2019-03-25T03:46:25.617Z,31.63
2019-03-25T03:46:56.956Z,35.67
2019-03-25T03:47:28.181Z,32.07
2019-03-25T03:47:59.413Z,38.13
2019-03-25T03:48:30.695Z,34.47
2019-03-25T03:49:01.901Z,32.87
2019-03-25T03:49:33.142Z,31.13
2019-03-25T03:50:05.505Z,33.83
2019-03-25T03:50:36.760Z,35.70
2019-03-25T03:51:07.940Z,34.03
2019-03-25T03:51:39.106Z,33.27
2019-03-25T03:52:10.296Z,36.33
2019-03-25T03:52:41.474Z,38.30
2019-03-25T03:53:12.768Z,34.40
2019-03-25T03:53:43.927Z,34.10
2019-03-25T03:54:15.138Z,33.27
2019-03-25T03:54:46.395Z,36.90
2019-03-25T03:55:17.592Z,28.80
2019-03-25T03:55:48.854Z,34.13
2019-03-25T03:56:20.050Z,44.33
2019-03-25T03:56:52.204Z,33.27
2019-03-25T03:57:23.413Z,33.60
2019-03-25T03:57:54.884Z,30.37
2019-03-25T03:58:26.097Z,33.60
2019-03-25T03:58:57.331Z,35.40
2019-03-25T03:59:28.527Z,31.93
2019-03-25T04:00:00.421Z,30.47
2019-03-25T04:00:32.779Z,28.47
2019-03-25T04:01:04.948Z,31.10
2019-03-25T04:01:36.167Z,30.20
2019-03-25T04:02:07.340Z,29.13
2019-03-25T04:02:38.527Z,29.70
2019-03-25T04:03:09.709Z,26.97
2019-03-25T04:03:40.977Z,30.97
2019-03-25T04:04:12.127Z,30.80
2019-03-25T04:04:43.347Z,25.23
2019-03-25T04:05:14.498Z,32.13
2019-03-25T04:05:45.688Z,30.20
2019-03-25T04:06:16.881Z,37.10
2019-03-25T04:06:48.103Z,30.63
2019-03-25T04:07:19.256Z,27.30
2019-03-25T04:07:50.449Z,31.13
2019-03-25T04:08:21.594Z,26.00
2019-03-25T04:08:52.790Z,32.33
2019-03-25T04:09:23.953Z,29.70
2019-03-25T04:09:55.145Z,34.77
2019-03-25T04:10:26.291Z,30.60
2019-03-25T04:10:57.468Z,29.10
2019-03-25T04:11:28.640Z,35.60
2019-03-25T04:11:59.784Z,34.20
2019-03-25T04:12:30.963Z,33.00
2019-03-25T04:13:02.209Z,29.63
2019-03-25T04:13:33.361Z,32.23
2019-03-25T04:14:04.614Z,28.50
2019-03-25T04:14:36.911Z,29.57
2019-03-25T04:15:12.042Z,30.47
2019-03-25T04:15:44.204Z,31.63
2019-03-25T04:16:15.394Z,23.73
2019-03-25T04:16:46.554Z,29.60
2019-03-25T04:17:17.697Z,28.30
2019-03-25T04:17:48.898Z,32.60
2019-03-25T04:18:20.061Z,29.80
2019-03-25T04:18:51.258Z,35.00
2019-03-25T04:19:22.442Z,28.93
2019-03-25T04:19:53.759Z,31.57
2019-03-25T04:20:24.915Z,34.23
2019-03-25T04:20:56.094Z,34.30
2019-03-25T04:21:28.311Z,34.33
2019-03-25T04:21:59.611Z,28.80
2019-03-25T04:22:30.765Z,33.20
2019-03-25T04:23:01.986Z,32.47
2019-03-25T04:23:33.129Z,33.27
2019-03-25T04:24:04.338Z,30.03
2019-03-25T04:24:35.509Z,34.37
2019-03-25T04:25:06.729Z,34.33
2019-03-25T04:25:37.980Z,29.70
2019-03-25T04:26:09.172Z,37.73
2019-03-25T04:26:40.373Z,30.33
2019-03-25T04:27:12.630Z,32.97
2019-03-25T04:27:43.824Z,32.17
2019-03-25T04:28:15.005Z,32.30
2019-03-25T04:28:46.195Z,33.93
2019-03-25T04:29:17.408Z,30.57
2019-03-25T04:29:48.571Z,31.23
2019-03-25T04:30:19.734Z,35.93
2019-03-25T04:30:50.928Z,39.43
2019-03-25T04:31:22.101Z,26.63
2019-03-25T04:31:53.278Z,29.10
2019-03-25T04:32:24.440Z,29.43
2019-03-25T04:32:55.740Z,35.03
2019-03-25T04:33:26.912Z,36.97
2019-03-25T04:33:58.076Z,32.03
2019-03-25T04:34:29.260Z,33.13
2019-03-25T04:35:00.520Z,29.40
2019-03-25T04:35:31.709Z,38.30
2019-03-25T04:36:03.008Z,40.33
2019-03-25T04:36:34.183Z,35.60
2019-03-25T04:37:05.359Z,36.90
2019-03-25T04:37:36.533Z,34.87
2019-03-25T04:38:07.816Z,39.30
2019-03-25T04:38:39.015Z,34.40
2019-03-25T04:39:10.178Z,32.17
2019-03-25T04:39:41.356Z,36.80
2019-03-25T04:40:12.631Z,32.27
2019-03-25T04:40:43.814Z,33.67
2019-03-25T04:41:15.002Z,31.97
2019-03-25T04:41:46.281Z,30.87
2019-03-25T04:42:17.447Z,30.23
2019-03-25T04:42:48.663Z,38.00
2019-03-25T04:43:19.882Z,30.73
2019-03-25T04:43:51.032Z,33.10
2019-03-25T04:44:22.257Z,33.47
2019-03-25T04:44:53.593Z,26.87
2019-03-25T04:45:24.859Z,35.87
2019-03-25T04:45:56.111Z,28.87
2019-03-25T04:46:27.325Z,34.67
2019-03-25T04:46:58.527Z,34.13
2019-03-25T04:47:29.676Z,33.30
2019-03-25T04:48:00.885Z,30.50
2019-03-25T04:48:32.041Z,29.33
2019-03-25T04:49:03.263Z,31.67
2019-03-25T04:49:34.411Z,33.87
2019-03-25T04:50:05.644Z,36.53
2019-03-25T04:50:36.856Z,32.13
2019-03-25T04:51:08.063Z,39.07
2019-03-25T04:51:39.211Z,34.60
2019-03-25T04:52:10.411Z,42.83
2019-03-25T04:52:41.556Z,34.83
2019-03-25T04:53:12.760Z,39.00
2019-03-25T04:53:43.909Z,40.00
2019-03-25T04:54:15.217Z,39.40
2019-03-25T04:54:46.384Z,37.43
2019-03-25T04:55:17.600Z,46.20
2019-03-25T04:55:48.760Z,41.10
2019-03-25T04:56:20.068Z,41.73
2019-03-25T04:56:51.218Z,38.67
2019-03-25T04:57:22.492Z,46.03
2019-03-25T04:57:53.738Z,39.43
2019-03-25T04:58:24.927Z,38.83
2019-03-25T04:58:56.110Z,44.27
2019-03-25T04:59:27.318Z,48.43
2019-03-25T04:59:58.507Z,46.17
2019-03-25T05:00:33.200Z,43.83
2019-03-25T05:01:04.367Z,38.60
2019-03-25T05:01:35.571Z,49.03
2019-03-25T05:02:06.753Z,45.00
2019-03-25T05:02:37.961Z,43.77
2019-03-25T05:03:09.127Z,44.07
2019-03-25T05:03:40.330Z,48.50
2019-03-25T05:04:11.495Z,42.17
2019-03-25T05:04:42.697Z,42.47
2019-03-25T05:05:13.841Z,44.27
2019-03-25T05:05:45.041Z,41.73
2019-03-25T05:06:16.202Z,42.80
2019-03-25T05:06:47.401Z,43.10
2019-03-25T05:07:18.578Z,39.23
2019-03-25T05:07:49.811Z,39.17
2019-03-25T05:08:21.037Z,36.70
2019-03-25T05:08:52.247Z,34.93
2019-03-25T05:09:23.590Z,37.33
2019-03-25T05:09:54.823Z,38.37
2019-03-25T05:10:26.073Z,37.90
2019-03-25T05:10:57.268Z,39.23
2019-03-25T05:11:30.766Z,37.23
2019-03-25T05:12:01.648Z,43.73
2019-03-25T05:12:32.811Z,41.50
2019-03-25T05:13:03.968Z,42.33
2019-03-25T05:13:35.169Z,33.57
2019-03-25T05:14:06.330Z,38.70
2019-03-25T05:14:37.540Z,31.60
2019-03-25T05:15:08.685Z,36.60
2019-03-25T05:15:39.890Z,34.07
2019-03-25T05:16:11.089Z,37.70
2019-03-25T05:16:42.290Z,34.70
2019-03-25T05:17:13.468Z,39.50
2019-03-25T05:17:44.664Z,38.93
2019-03-25T05:18:15.825Z,37.97
2019-03-25T05:18:47.021Z,38.27
2019-03-25T05:19:18.184Z,44.83
2019-03-25T05:19:50.417Z,46.80
2019-03-25T05:20:21.583Z,46.77
2019-03-25T05:20:52.771Z,36.80
2019-03-25T05:21:23.932Z,45.80
2019-03-25T05:21:55.137Z,41.17
2019-03-25T05:22:26.305Z,36.30
2019-03-25T05:22:57.481Z,36.53
2019-03-25T05:23:28.730Z,39.33
2019-03-25T05:23:59.905Z,35.83
2019-03-25T05:24:31.076Z,35.23
2019-03-25T05:25:04.149Z,35.23
2019-03-25T05:25:35.315Z,31.77
2019-03-25T05:26:06.492Z,35.57
2019-03-25T05:26:37.659Z,36.23
2019-03-25T05:27:08.841Z,30.63
2019-03-25T05:27:39.999Z,35.17
2019-03-25T05:28:11.187Z,34.10
2019-03-25T05:28:42.382Z,37.37
2019-03-25T05:29:13.526Z,34.40
2019-03-25T05:29:44.729Z,31.67
2019-03-25T05:30:15.883Z,37.57
2019-03-25T05:30:47.071Z,38.03
2019-03-25T05:31:18.265Z,41.77
2019-03-25T05:31:49.455Z,43.37
2019-03-25T05:32:20.601Z,41.07
2019-03-25T05:32:51.785Z,40.17
2019-03-25T05:33:22.947Z,42.17
2019-03-25T05:33:54.326Z,44.57
2019-03-25T05:34:25.489Z,35.97
2019-03-25T05:34:56.713Z,39.37
2019-03-25T05:35:27.850Z,35.43
2019-03-25T05:35:59.047Z,41.77
2019-03-25T05:36:30.208Z,35.30
2019-03-25T05:37:01.415Z,41.47
2019-03-25T05:37:32.588Z,39.77
2019-03-25T05:38:03.790Z,37.03
2019-03-25T05:38:34.944Z,36.27
2019-03-25T05:39:07.632Z,50.43
2019-03-25T05:39:39.784Z,50.13
2019-03-25T05:40:10.984Z,51.10
2019-03-25T05:40:42.147Z,79.87
2019-03-25T05:41:13.330Z,75.97
2019-03-25T05:41:44.500Z,63.50
2019-03-25T05:42:15.758Z,77.40
2019-03-25T05:42:46.974Z,73.20
2019-03-25T05:43:18.152Z,51.80
2019-03-25T05:43:50.318Z,42.30
2019-03-25T05:44:21.562Z,43.20
2019-03-25T05:44:52.792Z,44.03
2019-03-25T05:45:24.165Z,46.50
2019-03-25T05:45:55.383Z,40.43
2019-03-25T05:46:26.714Z,39.87
2019-03-25T05:46:57.955Z,38.57
2019-03-25T05:47:29.188Z,37.20
2019-03-25T05:48:00.382Z,32.37
2019-03-25T05:48:31.532Z,31.90
2019-03-25T05:49:02.737Z,35.03
2019-03-25T05:49:33.879Z,34.70
2019-03-25T05:50:05.563Z,38.00
2019-03-25T05:50:36.817Z,39.10
2019-03-25T05:51:08.047Z,39.10
2019-03-25T05:51:39.199Z,35.17
2019-03-25T05:52:10.389Z,42.13
2019-03-25T05:52:41.628Z,33.63
2019-03-25T05:53:12.827Z,40.47
2019-03-25T05:53:43.978Z,33.73
2019-03-25T05:54:15.201Z,35.50
2019-03-25T05:54:46.351Z,31.60
2019-03-25T05:55:17.611Z,35.00
2019-03-25T05:55:48.813Z,34.63
2019-03-25T05:56:21.001Z,35.03
2019-03-25T05:57:02.066Z,35.00
2019-03-25T05:57:25.256Z,28.60
2019-03-25T05:57:56.544Z,33.13
2019-03-25T05:58:27.764Z,40.90
2019-03-25T05:58:59.002Z,36.43
2019-03-25T05:59:31.222Z,34.13
2019-03-25T06:00:02.549Z,30.73
2019-03-25T06:00:35.877Z,34.27
2019-03-25T06:01:07.206Z,35.90
2019-03-25T06:01:38.430Z,28.10
2019-03-25T06:02:09.714Z,31.83
2019-03-25T06:02:40.939Z,31.57
2019-03-25T06:03:12.146Z,30.07
2019-03-25T06:03:43.297Z,29.23
2019-03-25T06:04:14.502Z,31.47
2019-03-25T06:04:45.710Z,33.97
2019-03-25T06:05:16.916Z,33.67
2019-03-25T06:05:48.057Z,36.83
2019-03-25T06:06:19.262Z,33.37
2019-03-25T06:06:52.164Z,33.77
2019-03-25T06:07:23.589Z,33.23
2019-03-25T06:07:54.796Z,33.13
2019-03-25T06:08:25.993Z,36.20
2019-03-25T06:08:57.163Z,37.13
2019-03-25T06:09:28.390Z,33.37
2019-03-25T06:09:59.569Z,31.30
2019-03-25T06:10:30.787Z,32.03
2019-03-25T06:11:01.929Z,40.10
2019-03-25T06:11:33.225Z,36.47
2019-03-25T06:12:04.397Z,36.90
2019-03-25T06:12:35.554Z,32.40
2019-03-25T06:13:06.753Z,33.43
2019-03-25T06:13:37.943Z,37.97
2019-03-25T06:14:09.105Z,33.67
2019-03-25T06:14:40.337Z,36.87
2019-03-25T06:15:11.537Z,31.37
2019-03-25T06:15:42.747Z,41.13
2019-03-25T06:16:13.901Z,34.20
2019-03-25T06:16:45.107Z,39.20
2019-03-25T06:17:16.273Z,35.63
2019-03-25T06:17:47.491Z,33.67
2019-03-25T06:18:20.409Z,39.10
2019-03-25T06:18:51.763Z,32.43
2019-03-25T06:19:22.914Z,31.73
2019-03-25T06:19:54.112Z,32.13
2019-03-25T06:20:25.275Z,31.03
2019-03-25T06:20:56.566Z,29.87
2019-03-25T06:21:27.711Z,30.43
2019-03-25T06:21:58.924Z,28.07
2019-03-25T06:22:30.080Z,33.23
2019-03-25T06:23:01.275Z,33.93
2019-03-25T06:23:32.458Z,32.13
2019-03-25T06:24:03.737Z,27.60
2019-03-25T06:24:34.922Z,34.17
2019-03-25T06:25:06.099Z,31.87
2019-03-25T06:25:37.254Z,34.67
2019-03-25T06:26:08.437Z,31.97
2019-03-25T06:26:39.605Z,36.67
2019-03-25T06:27:14.432Z,32.20
2019-03-25T06:27:43.858Z,34.60
2019-03-25T06:28:15.043Z,36.17
2019-03-25T06:28:47.257Z,31.93
2019-03-25T06:29:18.425Z,32.47
2019-03-25T06:29:49.602Z,35.23
2019-03-25T06:30:20.882Z,36.23
2019-03-25T06:30:52.059Z,31.63
2019-03-25T06:31:23.230Z,32.23
2019-03-25T06:31:54.454Z,30.00
2019-03-25T06:32:25.643Z,34.67
2019-03-25T06:32:56.821Z,31.87
2019-03-25T06:33:28.020Z,31.60
2019-03-25T06:33:59.192Z,34.20
2019-03-25T06:34:30.371Z,31.20
2019-03-25T06:35:01.770Z,32.87
2019-03-25T06:35:33.041Z,35.07
2019-03-25T06:36:04.289Z,33.20
2019-03-25T06:36:35.456Z,29.27
2019-03-25T06:37:06.653Z,31.33
2019-03-25T06:37:37.923Z,24.70
2019-03-25T06:38:09.107Z,32.87
2019-03-25T06:38:40.295Z,33.83
2019-03-25T06:39:11.432Z,33.53
2019-03-25T06:39:42.632Z,33.80
2019-03-25T06:40:13.795Z,30.70
2019-03-25T06:40:44.999Z,33.87
2019-03-25T06:41:16.159Z,38.27
2019-03-25T06:41:47.326Z,29.27
2019-03-25T06:42:18.492Z,34.40
2019-03-25T06:42:49.726Z,35.97
2019-03-25T06:43:20.951Z,39.80